createdAt,value
2018-11-01T00:01:43.427Z,81.57
2018-11-01T00:06:40.840Z,81.09
2018-11-01T00:11:38.265Z,81.98
2018-11-01T00:16:36.950Z,82.33
2018-11-01T00:21:34.373Z,82.95
2018-11-01T00:26:31.809Z,81.37
2018-11-01T00:31:29.235Z,82.27
2018-11-01T00:36:26.714Z,82.62
2018-11-01T00:41:24.104Z,81.12
2018-11-01T00:46:27.098Z,80.35
2018-11-01T00:51:24.507Z,82.11
2018-11-01T00:56:21.936Z,81.88
2018-11-01T01:01:19.368Z,80.16
2018-11-01T01:06:16.905Z,81.32
2018-11-01T01:11:14.357Z,80.57
2018-11-01T01:16:16.542Z,78.84
2018-11-01T01:21:13.968Z,79.92
2018-11-01T01:26:11.373Z,80.68
2018-11-01T01:31:08.798Z,81.51
2018-11-01T01:36:06.373Z,80.96
2018-11-01T01:41:03.803Z,80.86
2018-11-01T01:46:07.093Z,80.81
2018-11-01T01:51:04.640Z,80.83
2018-11-01T01:56:02.095Z,81.62
2018-11-01T02:00:59.521Z,83.04
2018-11-01T02:05:56.942Z,83.40
2018-11-01T02:10:54.363Z,83.55
2018-11-01T02:16:06.006Z,84.00
2018-11-01T02:21:03.522Z,82.97
2018-11-01T02:26:00.978Z,81.63
2018-11-01T02:30:58.405Z,83.19
2018-11-01T02:35:55.832Z,83.45
2018-11-01T02:40:53.284Z,82.87
2018-11-01T02:46:01.594Z,80.77
2018-11-01T02:50:59.064Z,80.47
2018-11-01T02:55:56.489Z,82.24
2018-11-01T03:00:53.922Z,83.24
2018-11-01T03:05:51.354Z,81.11
2018-11-01T03:10:48.773Z,79.90
2018-11-01T03:15:53.640Z,79.88
2018-11-01T03:20:51.224Z,78.92
2018-11-01T03:25:48.653Z,79.32
2018-11-01T03:30:46.104Z,79.89
2018-11-01T03:35:43.687Z,81.47
2018-11-01T03:40:41.144Z,82.00
2018-11-01T03:45:41.367Z,82.73
2018-11-01T03:50:38.992Z,82.50
2018-11-01T03:55:36.444Z,82.43
2018-11-01T04:00:33.860Z,82.45
2018-11-01T04:05:31.333Z,81.87
2018-11-01T04:10:28.755Z,82.98
2018-11-01T04:15:26.209Z,84.33
2018-11-01T04:20:23.630Z,84.83
2018-11-01T04:25:21.088Z,85.47
2018-11-01T04:30:18.776Z,86.61
2018-11-01T04:35:16.247Z,86.77
2018-11-01T04:40:13.688Z,86.84
2018-11-01T04:45:12.047Z,86.93
2018-11-01T04:50:10.789Z,88.00
2018-11-01T04:55:08.671Z,87.15
2018-11-01T05:00:08.381Z,85.92
2018-11-01T05:05:05.918Z,87.34
2018-11-01T05:10:03.371Z,88.67
2018-11-01T05:15:01.863Z,89.42
2018-11-01T05:20:00.292Z,89.69
2018-11-01T05:24:58.771Z,89.86
2018-11-01T05:29:56.450Z,87.15
2018-11-01T05:34:53.881Z,87.06
2018-11-01T05:39:51.340Z,87.78
2018-11-01T05:44:48.788Z,89.20
2018-11-01T05:49:46.235Z,89.39
2018-11-01T05:54:43.679Z,90.24
2018-11-01T05:59:41.400Z,90.90
2018-11-01T06:04:38.887Z,90.07
2018-11-01T06:09:36.332Z,89.62
2018-11-01T06:14:33.784Z,90.22
2018-11-01T06:19:31.244Z,91.04
2018-11-01T06:24:28.753Z,90.77
2018-11-01T06:29:26.287Z,91.10
2018-11-01T06:34:27.048Z,90.42
2018-11-01T06:39:24.565Z,90.26
2018-11-01T06:44:22.079Z,90.20
2018-11-01T06:49:19.992Z,90.47
2018-11-01T06:54:17.708Z,89.94
2018-11-01T06:59:15.556Z,89.13
2018-11-01T07:04:13.003Z,86.79
2018-11-01T07:09:12.176Z,88.06
2018-11-01T07:14:10.077Z,86.16
2018-11-01T07:19:07.737Z,86.43
2018-11-01T07:24:05.227Z,85.68
2018-11-01T07:29:02.767Z,86.47
2018-11-01T07:34:00.342Z,87.24
2018-11-01T07:38:57.784Z,87.32
2018-11-01T07:43:55.257Z,86.20
2018-11-01T07:48:52.712Z,86.53
2018-11-01T07:53:50.201Z,85.42
2018-11-01T07:58:47.722Z,84.34
2018-11-01T08:03:52.942Z,85.21
2018-11-01T08:08:50.773Z,86.39
2018-11-01T08:13:48.232Z,86.37
2018-11-01T08:18:45.744Z,86.35
2018-11-01T08:23:43.628Z,85.53
2018-11-01T08:28:41.509Z,85.07
2018-11-01T08:33:41.789Z,85.15
2018-11-01T08:38:39.298Z,85.01
2018-11-01T08:43:36.744Z,83.96
2018-11-01T08:48:34.277Z,84.22
2018-11-01T08:53:31.955Z,82.77
2018-11-01T08:58:29.443Z,81.88
2018-11-01T09:03:26.936Z,82.49
2018-11-01T09:08:24.393Z,79.81
2018-11-01T09:13:21.946Z,76.72
2018-11-01T09:18:19.327Z,72.79
2018-11-01T09:23:16.793Z,71.87
2018-11-01T09:28:14.245Z,69.47
2018-11-01T09:33:11.713Z,68.78
2018-11-01T09:38:09.144Z,68.30
2018-11-01T09:43:06.589Z,68.11
2018-11-01T09:48:05.638Z,67.97
2018-11-01T09:53:03.149Z,68.01
2018-11-01T09:58:00.951Z,68.05
2018-11-01T10:02:58.586Z,65.48
2018-11-01T10:07:56.239Z,68.34
2018-11-01T10:12:55.771Z,69.00
2018-11-01T10:17:53.967Z,69.43
2018-11-01T10:22:51.372Z,67.51
2018-11-01T10:27:51.095Z,67.08
2018-11-01T10:32:50.422Z,66.67
2018-11-01T10:37:48.311Z,66.94
2018-11-01T10:42:46.119Z,65.74
2018-11-01T10:47:44.047Z,66.08
2018-11-01T10:52:41.791Z,66.14
2018-11-01T10:57:39.514Z,65.89
2018-11-01T11:02:37.481Z,66.07
2018-11-01T11:07:35.248Z,65.12
2018-11-01T11:12:32.976Z,65.09
2018-11-01T11:17:30.436Z,65.73
2018-11-01T11:22:28.008Z,66.44
2018-11-01T11:27:25.821Z,64.04
2018-11-01T11:32:23.269Z,65.50
2018-11-01T11:37:20.791Z,66.64
2018-11-01T11:42:19.133Z,66.11
2018-11-01T11:47:16.719Z,65.20
2018-11-01T11:52:14.161Z,65.31
2018-11-01T11:57:11.822Z,65.10
2018-11-01T12:02:09.372Z,66.18
2018-11-01T12:07:06.936Z,65.91
2018-11-01T12:12:06.381Z,66.41
2018-11-01T12:17:12.991Z,68.27
2018-11-01T12:22:12.393Z,68.13
2018-11-01T12:27:11.506Z,68.97
2018-11-01T12:32:15.885Z,66.24
2018-11-01T12:37:18.626Z,68.95
2018-11-01T12:42:30.960Z,69.46
2018-11-01T12:47:41.623Z,68.16
2018-11-01T12:52:44.027Z,68.61
2018-11-01T12:57:43.520Z,72.60
2018-11-01T13:02:41.573Z,72.43
2018-11-01T13:07:38.982Z,72.43
2018-11-01T13:12:39.372Z,72.43
2018-11-01T13:17:39.316Z,72.88
2018-11-01T13:22:37.392Z,73.31
2018-11-01T13:27:34.999Z,72.35
2018-11-01T13:32:33.516Z,72.06
2018-11-01T13:37:31.080Z,73.98
2018-11-01T13:42:29.732Z,72.77
2018-11-01T13:47:27.376Z,74.02
2018-11-01T13:52:26.080Z,76.56
2018-11-01T13:57:24.142Z,75.97
2018-11-01T14:02:21.937Z,77.25
2018-11-01T14:07:19.823Z,79.62
2018-11-01T14:12:18.387Z,80.93
2018-11-01T14:17:17.258Z,81.12
2018-11-01T14:22:15.370Z,81.73
2018-11-01T14:27:13.600Z,80.83
2018-11-01T14:32:11.126Z,80.44
2018-11-01T14:37:09.725Z,80.36
2018-11-01T14:42:08.451Z,82.04
2018-11-01T14:47:08.698Z,82.86
2018-11-01T14:52:07.429Z,83.06
2018-11-01T14:57:05.587Z,84.31
2018-11-01T15:02:02.791Z,84.66
2018-11-01T15:07:01.864Z,86.08
2018-11-01T15:11:59.958Z,85.44
2018-11-01T15:17:02.963Z,85.92
2018-11-01T15:22:00.505Z,87.23
2018-11-01T15:26:59.187Z,87.27
2018-11-01T15:32:01.578Z,87.87
2018-11-01T15:37:00.060Z,88.77
2018-11-01T15:41:57.528Z,89.55
2018-11-01T15:47:01.595Z,89.48
2018-11-01T15:52:00.217Z,90.53
2018-11-01T15:56:59.708Z,91.21
2018-11-01T16:01:57.695Z,91.99
2018-11-01T16:06:56.984Z,92.73
2018-11-01T16:11:54.593Z,90.71
2018-11-01T16:16:52.084Z,91.19
2018-11-01T16:21:51.225Z,91.79
2018-11-01T16:26:48.879Z,91.63
2018-11-01T16:31:46.367Z,92.58
2018-11-01T16:36:44.041Z,92.42
2018-11-01T16:41:41.346Z,91.90
2018-11-01T16:46:40.371Z,89.11
2018-11-01T16:51:37.911Z,90.61
2018-11-01T16:56:35.352Z,90.53
2018-11-01T17:01:33.066Z,92.25
2018-11-01T17:06:30.684Z,92.09
2018-11-01T17:11:28.184Z,91.41
2018-11-01T17:16:26.901Z,92.46
2018-11-01T17:21:24.371Z,93.00
2018-11-01T17:26:21.864Z,92.67
2018-11-01T17:31:19.317Z,92.92
2018-11-01T17:36:16.790Z,92.72
2018-11-01T17:41:14.738Z,93.07
2018-11-01T17:46:22.987Z,92.64
2018-11-01T17:51:21.066Z,92.40
2018-11-01T17:56:18.467Z,92.74
2018-11-01T18:01:16.036Z,92.10
2018-11-01T18:06:13.492Z,92.17
2018-11-01T18:11:11.568Z,92.26
2018-11-01T18:16:16.280Z,92.28
2018-11-01T18:21:13.796Z,91.80
2018-11-01T18:26:11.275Z,92.44
2018-11-01T18:31:08.766Z,92.87
2018-11-01T18:36:06.255Z,92.16
2018-11-01T18:41:05.440Z,92.39
2018-11-01T18:46:14.717Z,92.80
2018-11-01T18:51:12.853Z,92.82
2018-11-01T18:56:10.357Z,92.11
2018-11-01T19:01:08.388Z,92.59
2018-11-01T19:06:05.844Z,92.38
2018-11-01T19:11:03.312Z,93.00
2018-11-01T19:16:10.543Z,92.51
2018-11-01T19:21:08.205Z,92.51
2018-11-01T19:26:05.710Z,92.98
2018-11-01T19:31:03.150Z,92.54
2018-11-01T19:36:00.708Z,92.36
2018-11-01T19:40:58.144Z,92.25
2018-11-01T19:45:57.508Z,92.37
2018-11-01T19:50:57.862Z,92.87
2018-11-01T19:56:01.868Z,92.64
2018-11-01T20:01:00.711Z,92.59
2018-11-01T20:06:00.288Z,91.77
2018-11-01T20:11:03.762Z,92.16
2018-11-01T20:16:03.316Z,92.44
2018-11-01T20:21:01.974Z,90.58
2018-11-01T20:25:59.515Z,91.62
2018-11-01T20:30:56.980Z,92.25
2018-11-01T20:35:54.462Z,91.92
2018-11-01T20:40:51.907Z,91.86
2018-11-01T20:45:58.825Z,91.91
2018-11-01T20:50:56.392Z,91.93
2018-11-01T20:56:04.192Z,91.24
2018-11-01T21:01:06.402Z,90.97
2018-11-01T21:06:11.484Z,91.33
2018-11-01T21:11:17.582Z,91.43
2018-11-01T21:16:20.044Z,91.30
2018-11-01T21:21:17.528Z,91.06
2018-11-01T21:26:14.976Z,91.42
2018-11-01T21:31:12.396Z,91.80
2018-11-01T21:36:09.852Z,91.87
2018-11-01T21:41:07.344Z,91.82
2018-11-01T21:46:11.691Z,92.25
2018-11-01T21:51:09.206Z,92.19
2018-11-01T21:56:06.640Z,92.00
2018-11-01T22:01:04.469Z,92.44
2018-11-01T22:06:01.975Z,91.99
2018-11-01T22:10:59.419Z,91.58
2018-11-01T22:15:59.779Z,91.05
2018-11-01T22:20:57.400Z,90.98
2018-11-01T22:25:54.930Z,90.63
2018-11-01T22:30:52.352Z,90.83
2018-11-01T22:35:49.857Z,90.71
2018-11-01T22:40:47.313Z,90.83
2018-11-01T22:45:45.452Z,91.52
2018-11-01T22:50:43.191Z,91.18
2018-11-01T22:55:40.632Z,90.95
2018-11-01T23:00:43.109Z,90.87
2018-11-01T23:05:40.554Z,91.51
2018-11-01T23:10:38.137Z,91.47
2018-11-01T23:15:35.583Z,91.62
2018-11-01T23:20:33.006Z,91.84
2018-11-01T23:25:30.534Z,91.39
2018-11-01T23:30:27.976Z,91.27
2018-11-01T23:35:25.403Z,91.21
2018-11-01T23:40:29.511Z,91.54
2018-11-01T23:45:32.502Z,91.27
2018-11-01T23:51:07.057Z,91.25
2018-11-01T23:56:04.502Z,90.86
